Colonia La Pastoril, Argentina
Current Conditions -  °F | °C
As of 3:00 PM on Friday 19 Dec 2014 (Local Time) from SAZN Reporting Station
Clear Clear  
Wind Chill: 75°   Ceiling: Unl
Heat Index: 75°   Visibility: 6mi
Dew Point: 39°   Wind: 23mph
Humidity: 27%   Direction: 230°SW
Pressure: 29.53"   Gusts: 38mph
Location:  36.33°S, 67.06°W
Report Text: SAZN 191800Z 23020G33KT CAVOK 24/04 Q1000
Loading
Personal Weather Stations






























Interactive Weather Map New forecast layout! Learn more

10-Day Weather Forecast

Advertisements
Track Severe Weather on mobile